Time;durP1;ratioP1;P1;durP2;ratioP2;P2;SDS_P1;SDS_P2;PMS_P1;PMS_P2;Temp;Humidity;BMP_temperature;BMP_pressure;BME280_temperature;BME280_humidity;BME280_pressure;Samples;Min_cycle;Max_cycle;Signal;HPM_P1;HPM_P2
2022/06/24 00:02:10;;;;;;;16.50;8.65;;;;;;;;;;5021591;28;20221;-66
2022/06/24 00:04:40;;;;;;;17.40;8.23;;;;;;;;;;5048878;28;20073;-66
2022/06/24 00:07:15;;;;;;;15.27;8.57;;;;;;;;;;5032733;28;20079;-66
2022/06/24 00:09:47;;;;;;;17.00;8.48;;;;;;;;;;5049014;28;20092;-66
2022/06/24 00:12:24;;;;;;;24.02;11.70;;;;;;;;;;5016202;28;20052;-66
2022/06/24 00:15:00;;;;;;;21.90;8.82;;;;;;;;;;4999997;28;20060;-66
2022/06/24 00:17:34;;;;;;;18.40;8.95;;;;;;;;;;5048454;28;20165;-66
2022/06/24 00:20:08;;;;;;;16.92;8.65;;;;;;;;;;5015932;28;20053;-66
2022/06/24 00:22:46;;;;;;;22.65;9.18;;;;;;;;;;5049145;28;20053;-66
2022/06/24 00:25:19;;;;;;;22.88;9.73;;;;;;;;;;5051346;28;20156;-66
2022/06/24 00:28:12;;;;;;;24.80;9.13;;;;;;;;;;5036320;28;20450;-66
2022/06/24 00:31:04;;;;;;;23.85;10.52;;;;;;;;;;5091563;28;20056;-66
2022/06/24 00:33:36;;;;;;;27.80;9.85;;;;;;;;;;5072520;28;20063;-65
2022/06/24 00:36:07;;;;;;;24.60;9.68;;;;;;;;;;5072651;28;20064;-65
2022/06/24 00:38:38;;;;;;;25.45;9.63;;;;;;;;;;5072709;28;20063;-66
2022/06/24 00:41:14;;;;;;;28.98;10.25;;;;;;;;;;5022969;28;20167;-66
2022/06/24 00:43:54;;;;;;;27.88;9.98;;;;;;;;;;5039103;28;20455;-66
2022/06/24 00:46:24;;;;;;;24.13;9.73;;;;;;;;;;5072467;28;20048;-66
2022/06/24 00:48:58;;;;;;;28.65;10.32;;;;;;;;;;5072340;28;20099;-66
2022/06/24 00:51:37;;;;;;;24.15;8.85;;;;;;;;;;5072528;28;20045;-66
2022/06/24 00:54:08;;;;;;;;;;;;;;;;;;5032378;28;20060;-66
2022/06/24 00:56:38;;;;;;;;;;;;;;;;;;5033010;28;20308;-66
2022/06/24 00:59:14;;;;;;;27.90;9.98;;;;;;;;;;5032023;28;20373;-66
2022/06/24 01:01:50;;;;;;;34.15;10.40;;;;;;;;;;4999316;28;20065;-66
2022/06/24 01:04:20;;;;;;;30.23;9.60;;;;;;;;;;5039413;28;20056;-66
2022/06/24 01:06:51;;;;;;;35.00;10.32;;;;;;;;;;5052105;28;20064;-66
2022/06/24 01:09:21;;;;;;;30.25;10.80;;;;;;;;;;5015467;28;20050;-66
2022/06/24 01:11:51;;;;;;;34.47;11.63;;;;;;;;;;5031826;28;20065;-66
2022/06/24 01:14:23;;;;;;;40.40;11.73;;;;;;;;;;4999445;28;20045;-66
2022/06/24 01:16:53;;;;;;;34.95;11.77;;;;;;;;;;5032158;28;20057;-66
2022/06/24 01:19:26;;;;;;;24.95;10.27;;;;;;;;;;5031634;28;20069;-66
2022/06/24 01:21:57;;;;;;;21.83;9.38;;;;;;;;;;5031818;28;20054;-66
2022/06/24 01:24:27;;;;;;;25.20;9.85;;;;;;;;;;5015611;28;20058;-66
2022/06/24 01:26:58;;;;;;;23.52;9.65;;;;;;;;;;5014770;28;20053;-66
2022/06/24 01:29:28;;;;;;;19.98;9.15;;;;;;;;;;4999722;28;20060;-66
2022/06/24 01:31:59;;;;;;;22.67;10.05;;;;;;;;;;5055779;28;20064;-66
2022/06/24 01:34:29;;;;;;;25.95;9.25;;;;;;;;;;5071695;28;20059;-66
2022/06/24 01:36:59;;;;;;;26.02;9.48;;;;;;;;;;5071114;28;20057;-66
2022/06/24 01:39:29;;;;;;;20.80;9.02;;;;;;;;;;5071386;28;20041;-65
2022/06/24 01:42:00;;;;;;;18.55;8.32;;;;;;;;;;5038097;28;20056;-65
2022/06/24 01:44:31;;;;;;;20.60;9.43;;;;;;;;;;5071241;28;20036;-65
2022/06/24 01:47:01;;;;;;;21.55;9.52;;;;;;;;;;5082879;28;20067;-65
2022/06/24 01:49:32;;;;;;;21.40;8.35;;;;;;;;;;5093948;28;20051;-65
2022/06/24 01:52:03;;;;;;;24.08;9.50;;;;;;;;;;5093800;28;20415;-65
2022/06/24 01:54:33;;;;;;;23.33;8.73;;;;;;;;;;5093650;28;20055;-65
2022/06/24 01:57:04;;;;;;;25.35;9.90;;;;;;;;;;5058289;28;20056;-65
2022/06/24 01:59:34;;;;;;;23.80;9.18;;;;;;;;;;5090897;28;20052;-66
2022/06/24 02:02:05;;;;;;;26.30;9.13;;;;;;;;;;5040945;28;20056;-65
2022/06/24 02:04:35;;;;;;;25.50;8.85;;;;;;;;;;5090670;28;20056;-66
2022/06/24 02:07:06;;;;;;;25.27;8.82;;;;;;;;;;5041314;28;20523;-66
2022/06/24 02:13:26;;;;;;;30.13;9.57;;;;;;;;;;5091145;28;20062;-66
2022/06/24 02:15:15;;;;;;;26.00;8.65;;;;;;;;;;5090931;28;20152;-66
2022/06/24 02:17:46;;;;;;;21.27;8.05;;;;;;;;;;5025020;28;20059;-66
2022/06/24 02:20:17;;;;;;;17.00;7.22;;;;;;;;;;5030414;28;20046;-66
2022/06/24 02:22:47;;;;;;;23.35;8.60;;;;;;;;;;4990977;28;20047;-66
2022/06/24 02:25:18;;;;;;;32.92;9.48;;;;;;;;;;4971394;28;20430;-66
2022/06/24 02:27:48;;;;;;;32.00;9.20;;;;;;;;;;4971912;28;20070;-67
2022/06/24 02:30:19;;;;;;;40.22;9.55;;;;;;;;;;4971466;28;20066;-66
2022/06/24 02:32:49;;;;;;;39.60;10.70;;;;;;;;;;4971377;28;20055;-66
2022/06/24 02:35:19;;;;;;;49.92;10.60;;;;;;;;;;4971499;28;20066;-66
2022/06/24 02:37:49;;;;;;;49.22;11.00;;;;;;;;;;4985871;28;20062;-67
2022/06/24 02:43:17;;;;;;;50.50;9.55;;;;;;;;;;4990928;28;20521;-66
2022/06/24 02:46:08;;;;;;;44.85;9.38;;;;;;;;;;4975329;28;20054;-66
2022/06/24 02:48:41;;;;;;;31.85;10.38;;;;;;;;;;4990179;28;20058;-66
2022/06/24 02:51:13;;;;;;;31.58;8.27;;;;;;;;;;4975108;28;20549;-66
2022/06/24 02:53:43;;;;;;;27.63;7.43;;;;;;;;;;4990684;28;20503;-66
2022/06/24 02:56:15;;;;;;;24.17;8.05;;;;;;;;;;4942578;28;20069;-66
2022/06/24 02:58:45;;;;;;;25.58;8.18;;;;;;;;;;4926610;28;20430;-66
2022/06/24 03:01:16;;;;;;;36.42;8.70;;;;;;;;;;4971534;28;20054;-66
2022/06/24 03:03:46;;;;;;;36.92;8.70;;;;;;;;;;5006714;28;20062;-67
2022/06/24 03:06:17;;;;;;;30.02;9.05;;;;;;;;;;4977762;28;20061;-66
2022/06/24 03:08:47;;;;;;;28.20;9.38;;;;;;;;;;4979595;28;20042;-66
2022/06/24 03:11:18;;;;;;;34.00;9.20;;;;;;;;;;5043152;28;20061;-66
2022/06/24 03:13:48;;;;;;;37.78;10.43;;;;;;;;;;5017454;28;20060;-66
2022/06/24 03:16:18;;;;;;;40.65;9.35;;;;;;;;;;5049796;28;20057;-66
2022/06/24 03:18:48;;;;;;;34.20;10.02;;;;;;;;;;5049334;28;20053;-66
2022/06/24 03:21:19;;;;;;;34.05;11.10;;;;;;;;;;5049710;28;20065;-66
2022/06/24 03:23:49;;;;;;;32.08;10.73;;;;;;;;;;5033197;28;20053;-66
2022/06/24 03:26:20;;;;;;;30.30;9.70;;;;;;;;;;4957747;28;20411;-66
2022/06/24 03:28:50;;;;;;;32.05;10.25;;;;;;;;;;4990125;28;20061;-66
2022/06/24 03:31:20;;;;;;;36.47;10.00;;;;;;;;;;4990605;28;20458;-66
2022/06/24 03:33:50;;;;;;;34.05;10.63;;;;;;;;;;4990054;28;20094;-67
2022/06/24 03:36:21;;;;;;;31.88;10.73;;;;;;;;;;4989961;28;20050;-66
2022/06/24 03:38:52;;;;;;;37.65;9.75;;;;;;;;;;4974346;28;20062;-67
2022/06/24 03:41:22;;;;;;;34.10;10.43;;;;;;;;;;4990119;28;20051;-67
2022/06/24 03:43:53;;;;;;;30.40;9.80;;;;;;;;;;4982930;28;20084;-66
2022/06/24 03:46:23;;;;;;;31.58;11.50;;;;;;;;;;5028718;28;20385;-67
2022/06/24 03:48:53;;;;;;;32.03;10.13;;;;;;;;;;4999665;28;20053;-67
2022/06/24 03:51:24;;;;;;;31.95;10.57;;;;;;;;;;5049134;28;20504;-67
2022/06/24 03:53:54;;;;;;;37.15;10.23;;;;;;;;;;5049162;28;20059;-66
2022/06/24 03:56:24;;;;;;;27.30;10.10;;;;;;;;;;4999903;28;20053;-66
2022/06/24 03:58:55;;;;;;;34.10;9.35;;;;;;;;;;5048770;28;20052;-66
2022/06/24 04:01:25;;;;;;;30.15;8.93;;;;;;;;;;5028913;28;20061;-66
2022/06/24 04:03:55;;;;;;;25.75;9.68;;;;;;;;;;5041571;28;20554;-66
2022/06/24 04:06:26;;;;;;;16.65;7.00;;;;;;;;;;5089267;28;20074;-66
2022/06/24 04:08:56;;;;;;;10.55;5.38;;;;;;;;;;5072642;28;20051;-66
2022/06/24 04:11:26;;;;;;;10.40;5.10;;;;;;;;;;5089231;28;20055;-66
2022/06/24 04:13:59;;;;;;;10.50;5.13;;;;;;;;;;5073024;28;20067;-66
2022/06/24 04:16:29;;;;;;;9.98;5.43;;;;;;;;;;5072873;28;20141;-66
2022/06/24 04:19:00;;;;;;;10.48;5.28;;;;;;;;;;5089526;28;20430;-66
2022/06/24 04:21:31;;;;;;;9.80;5.07;;;;;;;;;;5089245;28;20052;-66
2022/06/24 04:24:01;;;;;;;8.82;4.68;;;;;;;;;;5072330;28;20056;-66
2022/06/24 04:26:31;;;;;;;11.52;5.38;;;;;;;;;;5088835;28;20056;-66
2022/06/24 04:29:02;;;;;;;9.00;5.20;;;;;;;;;;5035231;28;20059;-66
2022/06/24 04:31:32;;;;;;;9.00;5.10;;;;;;;;;;5028821;28;20497;-66
2022/06/24 04:34:02;;;;;;;11.57;5.43;;;;;;;;;;5028882;28;20524;-66
2022/06/24 04:36:32;;;;;;;10.40;5.00;;;;;;;;;;5028550;28;20061;-66
2022/06/24 04:39:03;;;;;;;10.77;4.90;;;;;;;;;;5038821;28;20053;-66
2022/06/24 04:41:33;;;;;;;10.73;5.03;;;;;;;;;;5048635;28;20424;-66
2022/06/24 04:44:04;;;;;;;9.40;4.78;;;;;;;;;;5048523;28;20065;-66
2022/06/24 04:46:33;;;;;;;12.18;5.25;;;;;;;;;;5048663;28;20057;-66
2022/06/24 04:49:04;;;;;;;10.20;5.38;;;;;;;;;;5015348;28;20056;-66
2022/06/24 04:51:34;;;;;;;10.88;5.78;;;;;;;;;;5048476;28;20153;-66
2022/06/24 04:54:04;;;;;;;10.15;5.43;;;;;;;;;;5048487;28;20061;-66
2022/06/24 04:56:34;;;;;;;14.13;4.95;;;;;;;;;;5048535;28;20057;-66
2022/06/24 04:59:04;;;;;;;10.35;5.38;;;;;;;;;;5048509;28;20101;-66
2022/06/24 05:01:35;;;;;;;10.13;4.93;;;;;;;;;;5048380;28;20053;-66
2022/06/24 05:04:05;;;;;;;9.35;4.75;;;;;;;;;;5048401;28;20068;-66
2022/06/24 05:06:35;;;;;;;10.65;4.80;;;;;;;;;;5057813;28;20489;-66
2022/06/24 05:09:05;;;;;;;8.55;4.70;;;;;;;;;;5066664;28;20047;-66
2022/06/24 05:11:36;;;;;;;8.88;4.40;;;;;;;;;;5070395;28;20060;-66
2022/06/24 05:14:06;;;;;;;9.88;4.95;;;;;;;;;;5071919;28;20060;-65
2022/06/24 05:16:36;;;;;;;9.18;4.70;;;;;;;;;;5071805;28;20056;-66
2022/06/24 05:19:11;;;;;;;13.57;5.65;;;;;;;;;;5022104;28;20064;-66
2022/06/24 05:21:41;;;;;;;9.07;4.65;;;;;;;;;;5071771;28;20063;-66
2022/06/24 05:24:12;;;;;;;9.57;4.80;;;;;;;;;;5038034;28;20048;-66
2022/06/24 05:26:43;;;;;;;9.63;4.68;;;;;;;;;;5071525;28;20067;-66
2022/06/24 05:29:14;;;;;;;10.25;5.45;;;;;;;;;;4998568;28;20045;-66
2022/06/24 05:31:45;;;;;;;10.07;5.07;;;;;;;;;;5031461;28;20060;-66
2022/06/24 05:34:16;;;;;;;9.60;5.05;;;;;;;;;;5031609;28;20062;-66
2022/06/24 05:36:46;;;;;;;8.88;4.88;;;;;;;;;;4966914;28;20876;-66
2022/06/24 05:39:17;;;;;;;9.05;5.15;;;;;;;;;;4966965;28;20046;-66
2022/06/24 05:41:46;;;;;;;10.32;5.35;;;;;;;;;;4998351;28;20064;-66
2022/06/24 05:44:17;;;;;;;10.52;5.40;;;;;;;;;;5015475;28;20045;-66
2022/06/24 05:46:47;;;;;;;9.68;5.05;;;;;;;;;;4991778;28;20065;-66
2022/06/24 05:49:18;;;;;;;13.15;5.97;;;;;;;;;;4981807;28;20055;-66
2022/06/24 05:51:48;;;;;;;11.00;5.68;;;;;;;;;;4972350;28;20066;-66
2022/06/24 05:57:07;;;;;;;10.90;5.90;;;;;;;;;;4972325;28;20165;-67
2022/06/24 05:59:38;;;;;;;11.85;5.75;;;;;;;;;;4972544;28;20062;-66
2022/06/24 06:02:09;;;;;;;9.57;5.30;;;;;;;;;;4960539;28;20061;-66
2022/06/24 06:04:39;;;;;;;11.70;5.45;;;;;;;;;;5030878;28;20053;-66
2022/06/24 06:07:09;;;;;;;10.63;5.78;;;;;;;;;;5055416;28;20088;-66
2022/06/24 06:09:41;;;;;;;13.13;6.03;;;;;;;;;;5021261;28;20417;-66
2022/06/24 06:12:11;;;;;;;10.43;5.53;;;;;;;;;;5037857;28;20534;-66
2022/06/24 06:14:41;;;;;;;10.82;5.20;;;;;;;;;;5038171;28;20424;-66
2022/06/24 06:17:11;;;;;;;11.52;6.00;;;;;;;;;;5070875;28;20416;-66
2022/06/24 06:19:42;;;;;;;12.27;6.00;;;;;;;;;;5021133;28;20061;-66
2022/06/24 06:22:12;;;;;;;10.18;5.30;;;;;;;;;;5020822;28;20053;-66
2022/06/24 06:24:43;;;;;;;10.23;5.55;;;;;;;;;;5084638;28;20052;-66
2022/06/24 06:27:13;;;;;;;11.18;5.70;;;;;;;;;;5093357;28;20404;-66
2022/06/24 06:29:43;;;;;;;12.02;5.82;;;;;;;;;;5093081;28;20502;-66
2022/06/24 06:32:13;;;;;;;11.00;5.78;;;;;;;;;;5070078;28;20044;-66
2022/06/24 06:34:44;;;;;;;11.02;5.78;;;;;;;;;;5037250;28;20052;-66
2022/06/24 06:37:14;;;;;;;10.60;6.00;;;;;;;;;;5049927;28;20435;-66
2022/06/24 06:39:44;;;;;;;11.18;5.68;;;;;;;;;;5034074;28;20165;-66
2022/06/24 06:42:15;;;;;;;12.63;6.22;;;;;;;;;;5050187;28;20064;-66
2022/06/24 06:44:45;;;;;;;10.75;5.90;;;;;;;;;;5017486;28;20416;-66
2022/06/24 06:47:16;;;;;;;11.02;5.60;;;;;;;;;;5016951;28;20049;-66
2022/06/24 06:49:47;;;;;;;11.70;6.45;;;;;;;;;;5010178;28;20046;-66
2022/06/24 06:52:16;;;;;;;13.20;5.57;;;;;;;;;;4977664;28;20053;-66
2022/06/24 06:54:47;;;;;;;9.73;5.20;;;;;;;;;;5010177;28;20057;-66
2022/06/24 06:57:17;;;;;;;11.38;5.75;;;;;;;;;;5010358;28;20062;-66
2022/06/24 06:59:49;;;;;;;10.38;5.55;;;;;;;;;;5026492;28;20046;-66
2022/06/24 07:02:19;;;;;;;11.77;5.63;;;;;;;;;;5012283;28;20054;-66
2022/06/24 07:04:49;;;;;;;12.02;5.65;;;;;;;;;;5010033;28;20057;-66
2022/06/24 07:07:20;;;;;;;10.05;5.55;;;;;;;;;;5010450;28;20217;-66
2022/06/24 07:09:51;;;;;;;10.43;5.32;;;;;;;;;;5010143;28;20065;-66
2022/06/24 07:12:22;;;;;;;11.07;5.68;;;;;;;;;;5010346;28;20065;-66
2022/06/24 07:14:52;;;;;;;12.27;5.95;;;;;;;;;;5010081;28;20061;-66
2022/06/24 07:17:22;;;;;;;10.55;5.53;;;;;;;;;;4961824;28;20093;-66
2022/06/24 07:19:52;;;;;;;9.63;5.53;;;;;;;;;;5009968;28;20053;-66
2022/06/24 07:22:28;;;;;;;10.15;5.85;;;;;;;;;;5010008;28;20061;-66
2022/06/24 07:24:58;;;;;;;10.50;5.78;;;;;;;;;;4994270;28;20046;-66
2022/06/24 07:27:29;;;;;;;9.77;5.78;;;;;;;;;;5030782;28;20083;-66
2022/06/24 07:29:59;;;;;;;10.55;5.22;;;;;;;;;;5000176;28;20558;-66
2022/06/24 07:32:30;;;;;;;10.48;5.57;;;;;;;;;;4990185;28;20058;-66
2022/06/24 07:35:01;;;;;;;10.70;5.57;;;;;;;;;;4989685;28;20046;-66
2022/06/24 07:37:31;;;;;;;9.45;5.25;;;;;;;;;;4990120;28;20449;-65
2022/06/24 07:40:01;;;;;;;9.68;5.65;;;;;;;;;;4989709;28;20047;-66
2022/06/24 07:42:31;;;;;;;11.13;6.18;;;;;;;;;;5011062;28;20081;-66
2022/06/24 07:45:03;;;;;;;12.20;6.25;;;;;;;;;;4973104;28;20053;-66
2022/06/24 07:47:35;;;;;;;12.38;7.03;;;;;;;;;;4957955;28;20114;-66
2022/06/24 07:50:05;;;;;;;;;;;;;;;;;;4973665;28;20042;-66
2022/06/24 07:52:34;;;;;;;10.98;6.15;;;;;;;;;;4957801;28;20027;-66
2022/06/24 07:57:54;;;;;;;12.57;6.85;;;;;;;;;;4989545;28;20058;-66
2022/06/24 08:00:24;;;;;;;11.77;6.18;;;;;;;;;;4941593;28;20495;-66
2022/06/24 08:02:54;;;;;;;10.70;6.40;;;;;;;;;;4989343;28;20065;-66
2022/06/24 08:05:25;;;;;;;11.63;6.63;;;;;;;;;;4989888;28;20117;-66
2022/06/24 08:07:56;;;;;;;11.18;6.38;;;;;;;;;;4970226;28;20070;-66
2022/06/24 08:10:26;;;;;;;11.40;6.07;;;;;;;;;;4982549;28;20491;-66
2022/06/24 08:12:56;;;;;;;9.88;5.40;;;;;;;;;;5021141;28;20488;-66
2022/06/24 08:15:26;;;;;;;9.18;5.32;;;;;;;;;;5012702;28;20049;-66
2022/06/24 08:17:56;;;;;;;10.93;5.28;;;;;;;;;;5029257;28;20053;-66
2022/06/24 08:20:26;;;;;;;9.55;5.38;;;;;;;;;;5028887;28;20061;-66
2022/06/24 08:22:57;;;;;;;10.93;5.68;;;;;;;;;;5012229;28;20053;-66
2022/06/24 08:25:27;;;;;;;8.48;4.93;;;;;;;;;;4989193;28;20499;-66
2022/06/24 08:27:58;;;;;;;10.90;5.00;;;;;;;;;;5012899;28;20060;-66
2022/06/24 08:30:29;;;;;;;10.13;5.80;;;;;;;;;;4989081;28;20054;-66
2022/06/24 08:32:59;;;;;;;11.07;5.70;;;;;;;;;;4950413;29;20054;-66
2022/06/24 08:35:30;;;;;;;11.05;5.90;;;;;;;;;;4950758;29;20058;-66
2022/06/24 08:38:00;;;;;;;11.60;6.65;;;;;;;;;;4950768;29;20059;-66
2022/06/24 08:40:31;;;;;;;12.73;6.85;;;;;;;;;;4950665;29;20113;-66
2022/06/24 08:43:01;;;;;;;14.27;6.95;;;;;;;;;;4950601;29;20527;-66
2022/06/24 08:45:31;;;;;;;15.95;6.97;;;;;;;;;;4971316;28;20046;-66
2022/06/24 08:48:02;;;;;;;14.45;7.65;;;;;;;;;;4976843;28;20058;-66
2022/06/24 08:50:33;;;;;;;13.18;6.82;;;;;;;;;;4992845;28;20203;-66
2022/06/24 08:53:07;;;;;;;14.63;6.82;;;;;;;;;;4993047;28;20438;-66
2022/06/24 08:55:39;;;;;;;15.10;7.53;;;;;;;;;;4993149;28;20071;-66
2022/06/24 08:58:10;;;;;;;;;;;;;;;;;;4961159;28;20054;-66
2022/06/24 09:00:41;;;;;;;12.13;5.88;;;;;;;;;;4992858;28;19928;-66
2022/06/24 09:03:12;;;;;;;12.43;5.40;;;;;;;;;;5013523;28;20049;-65
2022/06/24 09:05:42;;;;;;;10.30;4.95;;;;;;;;;;5032313;28;20049;-66
2022/06/24 09:08:16;;;;;;;10.93;4.97;;;;;;;;;;5053586;28;20064;-66
2022/06/24 09:11:07;;;;;;;11.32;5.05;;;;;;;;;;5084414;28;20056;-66
2022/06/24 09:13:55;;;;;;;9.68;5.55;;;;;;;;;;5094589;28;20048;-66
2022/06/24 09:16:26;;;;;;;9.73;4.85;;;;;;;;;;5094958;28;20044;-66
2022/06/24 09:19:00;;;;;;;9.75;5.03;;;;;;;;;;5094614;28;20431;-66
2022/06/24 09:21:39;;;;;;;11.02;5.38;;;;;;;;;;5071514;28;20056;-66
2022/06/24 09:24:11;;;;;;;9.27;5.22;;;;;;;;;;5071643;28;20064;-66
2022/06/24 09:26:44;;;;;;;9.23;5.15;;;;;;;;;;5018650;28;20052;-66
2022/06/24 09:29:16;;;;;;;9.68;5.60;;;;;;;;;;5051909;28;20060;-66
2022/06/24 09:31:46;;;;;;;10.63;4.95;;;;;;;;;;5052124;28;20093;-66
2022/06/24 09:34:18;;;;;;;11.40;5.25;;;;;;;;;;5002111;28;20754;-66
2022/06/24 09:36:49;;;;;;;8.75;5.10;;;;;;;;;;5018533;28;20437;-66
2022/06/24 09:39:22;;;;;;;8.98;4.68;;;;;;;;;;5051549;28;20044;-66
2022/06/24 09:41:57;;;;;;;;;;;;;;;;;;5052197;28;20045;-66
2022/06/24 09:44:45;;;;;;;9.93;5.05;;;;;;;;;;5034927;28;19928;-66
2022/06/24 09:47:24;;;;;;;10.35;5.63;;;;;;;;;;5051414;28;20064;-65
2022/06/24 09:49:57;;;;;;;11.40;5.40;;;;;;;;;;5051464;28;20048;-66
2022/06/24 09:52:27;;;;;;;13.02;5.72;;;;;;;;;;5050470;28;20155;-66
2022/06/24 09:55:01;;;;;;;13.82;6.30;;;;;;;;;;5051261;28;20516;-66
2022/06/24 09:57:33;;;;;;;13.52;6.50;;;;;;;;;;5014023;28;20046;-66
2022/06/24 10:02:54;;;;;;;11.43;6.28;;;;;;;;;;5050775;28;20060;-65
2022/06/24 10:05:27;;;;;;;18.70;7.20;;;;;;;;;;5070209;28;20053;-66
2022/06/24 10:07:59;;;;;;;13.20;7.13;;;;;;;;;;5070882;28;20060;-66
2022/06/24 10:10:34;;;;;;;12.55;6.60;;;;;;;;;;5070950;28;20048;-66
2022/06/24 10:13:08;;;;;;;16.30;7.72;;;;;;;;;;5070833;28;20057;-66
2022/06/24 10:15:41;;;;;;;16.90;7.85;;;;;;;;;;5071414;28;20515;-66
2022/06/24 10:18:13;;;;;;;14.43;7.80;;;;;;;;;;5037509;28;20056;-66
2022/06/24 10:20:46;;;;;;;15.27;8.05;;;;;;;;;;4994290;28;20391;-66
2022/06/24 10:23:34;;;;;;;;;;;;;;;;;;5011339;28;20421;-66
2022/06/24 10:26:11;;;;;;;14.70;6.78;;;;;;;;;;4994454;28;20305;-66
2022/06/24 10:29:00;;;;;;;11.95;6.28;;;;;;;;;;5010863;28;20049;-66
2022/06/24 10:31:56;;;;;;;11.65;5.57;;;;;;;;;;5010700;28;20430;-66
2022/06/24 10:34:40;;;;;;;8.93;4.78;;;;;;;;;;4982030;28;20041;-65
2022/06/24 10:37:20;;;;;;;12.02;5.40;;;;;;;;;;5016109;28;20141;-66
2022/06/24 10:39:56;;;;;;;12.95;5.65;;;;;;;;;;5013533;28;20061;-66
2022/06/24 10:42:29;;;;;;;12.23;6.22;;;;;;;;;;5030522;28;20057;-65
2022/06/24 10:45:05;;;;;;;11.07;5.47;;;;;;;;;;5030266;28;20065;-66
2022/06/24 10:47:36;;;;;;;10.25;5.22;;;;;;;;;;5030474;28;20057;-66
2022/06/24 10:50:14;;;;;;;12.20;5.93;;;;;;;;;;5030167;28;20044;-66
2022/06/24 10:52:48;;;;;;;13.00;6.25;;;;;;;;;;4997429;28;20056;-66
2022/06/24 10:55:20;;;;;;;15.48;7.68;;;;;;;;;;5030206;28;20057;-66
2022/06/24 10:57:54;;;;;;;17.33;8.55;;;;;;;;;;5025078;28;20049;-66
2022/06/24 11:00:39;;;;;;;19.20;9.10;;;;;;;;;;5070373;28;20052;-66
2022/06/24 11:03:20;;;;;;;21.15;9.30;;;;;;;;;;5053966;28;20056;-66
2022/06/24 11:05:53;;;;;;;25.95;10.68;;;;;;;;;;5049785;28;20056;-65
2022/06/24 11:08:25;;;;;;;28.08;10.55;;;;;;;;;;5015945;28;20413;-65
2022/06/24 11:10:56;;;;;;;25.60;11.25;;;;;;;;;;5049104;28;20420;-67
2022/06/24 11:13:27;;;;;;;21.02;9.80;;;;;;;;;;4996959;28;20049;-66
2022/06/24 11:15:58;;;;;;;19.73;9.13;;;;;;;;;;5029949;28;20055;-67
2022/06/24 11:18:35;;;;;;;16.95;8.88;;;;;;;;;;5066237;28;20053;-66
2022/06/24 11:21:09;;;;;;;15.23;8.32;;;;;;;;;;5029553;28;20049;-66
2022/06/24 11:23:40;;;;;;;15.35;8.13;;;;;;;;;;5029558;28;20054;-67
2022/06/24 11:26:15;;;;;;;16.50;8.10;;;;;;;;;;5012911;28;20060;-65
2022/06/24 11:28:53;;;;;;;15.07;7.35;;;;;;;;;;5029758;28;20058;-66
2022/06/24 11:31:30;;;;;;;21.95;7.68;;;;;;;;;;5012933;28;20057;-66
2022/06/24 11:34:03;;;;;;;17.67;8.35;;;;;;;;;;5029591;28;20057;-66
2022/06/24 11:36:35;;;;;;;18.95;9.32;;;;;;;;;;5029887;28;20058;-66
2022/06/24 11:39:09;;;;;;;21.65;10.10;;;;;;;;;;5029387;28;20057;-66
2022/06/24 11:41:57;;;;;;;25.45;10.98;;;;;;;;;;5029321;28;20548;-66
2022/06/24 11:44:38;;;;;;;22.88;12.13;;;;;;;;;;5034032;28;20057;-66
2022/06/24 11:47:08;;;;;;;27.17;13.27;;;;;;;;;;5069263;28;20040;-67
2022/06/24 11:49:46;;;;;;;26.70;12.88;;;;;;;;;;5029032;28;20049;-66
2022/06/24 11:52:18;;;;;;;25.63;12.57;;;;;;;;;;5015700;28;20048;-68
2022/06/24 11:54:49;;;;;;;26.65;12.93;;;;;;;;;;5009298;28;20046;-67
2022/06/24 11:57:21;;;;;;;24.73;11.73;;;;;;;;;;4976579;28;20100;-66
2022/06/24 11:59:58;;;;;;;28.02;12.70;;;;;;;;;;5009390;28;20050;-66
2022/06/24 12:02:39;;;;;;;22.02;11.98;;;;;;;;;;5009117;28;20057;-65
2022/06/24 12:05:09;;;;;;;20.95;10.85;;;;;;;;;;5009436;28;20050;-66
2022/06/24 12:07:39;;;;;;;17.95;10.00;;;;;;;;;;5009249;28;20066;-66
2022/06/24 12:10:11;;;;;;;18.20;10.15;;;;;;;;;;4976799;28;20054;-66
2022/06/24 12:13:08;;;;;;;18.23;9.10;;;;;;;;;;4992850;28;20097;-67
2022/06/24 12:15:38;;;;;;;19.17;9.75;;;;;;;;;;4950894;29;20059;-66
2022/06/24 12:18:18;;;;;;;16.90;9.10;;;;;;;;;;4951202;29;20051;-67
2022/06/24 12:20:57;;;;;;;17.08;9.50;;;;;;;;;;4954249;28;20055;-67
2022/06/24 12:23:38;;;;;;;15.07;8.20;;;;;;;;;;4954841;29;20400;-67
2022/06/24 12:26:20;;;;;;;15.32;8.40;;;;;;;;;;4938976;29;20062;-67
2022/06/24 12:29:05;;;;;;;14.63;8.45;;;;;;;;;;4943110;28;20077;-67
2022/06/24 12:31:35;;;;;;;17.98;8.20;;;;;;;;;;4941864;28;20054;-65
2022/06/24 12:34:06;;;;;;;13.75;8.02;;;;;;;;;;4973675;28;20058;-65
2022/06/24 12:36:44;;;;;;;13.95;7.55;;;;;;;;;;4973911;28;20054;-65
2022/06/24 12:39:14;;;;;;;12.32;7.25;;;;;;;;;;4985898;28;20065;-65
2022/06/24 12:41:46;;;;;;;14.90;8.00;;;;;;;;;;4977250;28;20098;-67
2022/06/24 12:44:18;;;;;;;13.77;7.22;;;;;;;;;;4977161;28;20466;-67
2022/06/24 12:52:40;;;;;;;11.88;7.47;;;;;;;;;;5040229;28;20048;-67
2022/06/24 12:55:16;;;;;;;16.70;8.55;;;;;;;;;;5092824;28;20535;-66
2022/06/24 12:57:46;;;;;;;16.25;8.35;;;;;;;;;;5092452;28;20170;-67
2022/06/24 13:00:17;;;;;;;14.43;8.15;;;;;;;;;;5092792;28;20056;-67
2022/06/24 13:02:55;;;;;;;14.38;7.85;;;;;;;;;;5042716;28;20542;-67
2022/06/24 13:05:26;;;;;;;;;;;;;;;;;;5059630;28;20082;-66
2022/06/24 13:07:56;;;;;;;12.05;7.32;;;;;;;;;;5068096;28;19921;-67
2022/06/24 13:10:26;;;;;;;13.57;7.20;;;;;;;;;;5052163;28;20516;-67
2022/06/24 13:12:56;;;;;;;12.60;7.20;;;;;;;;;;5051831;28;20049;-67
2022/06/24 13:15:27;;;;;;;15.48;8.70;;;;;;;;;;5051923;28;20377;-64
2022/06/24 13:17:58;;;;;;;11.25;7.57;;;;;;;;;;5035662;28;20495;-64
2022/06/24 13:20:28;;;;;;;14.18;8.13;;;;;;;;;;5051917;28;20061;-64
2022/06/24 13:22:59;;;;;;;12.07;7.75;;;;;;;;;;5051719;28;20048;-64
2022/06/24 13:25:29;;;;;;;17.55;8.77;;;;;;;;;;5002745;28;20060;-64
2022/06/24 13:28:00;;;;;;;19.55;10.43;;;;;;;;;;5051592;28;20057;-64
2022/06/24 13:30:30;;;;;;;31.60;15.40;;;;;;;;;;5031583;28;20062;-64
2022/06/24 13:33:00;;;;;;;18.88;10.70;;;;;;;;;;5031086;28;20045;-64
2022/06/24 13:35:30;;;;;;;16.35;7.80;;;;;;;;;;5031808;28;20068;-64
2022/06/24 13:38:01;;;;;;;13.85;8.93;;;;;;;;;;5015479;28;20045;-64
2022/06/24 13:40:31;;;;;;;14.45;8.40;;;;;;;;;;5031724;28;20075;-66
2022/06/24 13:43:01;;;;;;;12.55;6.78;;;;;;;;;;5031819;28;20069;-66
2022/06/24 13:45:32;;;;;;;10.45;6.03;;;;;;;;;;5060765;28;20060;-66
2022/06/24 13:48:06;;;;;;;10.38;5.35;;;;;;;;;;5018106;28;20057;-66
2022/06/24 13:50:36;;;;;;;10.50;6.20;;;;;;;;;;5011561;28;20405;-66
2022/06/24 13:53:07;;;;;;;11.38;5.78;;;;;;;;;;5011578;28;20064;-66
2022/06/24 13:55:37;;;;;;;12.38;5.38;;;;;;;;;;4972716;28;20055;-66
2022/06/24 13:58:08;;;;;;;7.70;4.22;;;;;;;;;;4972672;28;20470;-66
2022/06/24 14:00:38;;;;;;;7.65;4.15;;;;;;;;;;4972623;28;20055;-66
2022/06/24 14:03:09;;;;;;;6.90;3.78;;;;;;;;;;4941195;28;20047;-65
2022/06/24 14:05:39;;;;;;;10.77;3.72;;;;;;;;;;4972482;28;20396;-66
2022/06/24 14:08:09;;;;;;;6.40;3.33;;;;;;;;;;4972612;28;20088;-66
2022/06/24 14:10:40;;;;;;;8.00;3.40;;;;;;;;;;4940374;28;20074;-66
2022/06/24 14:13:11;;;;;;;8.88;3.33;;;;;;;;;;4971882;28;20047;-66
2022/06/24 14:15:41;;;;;;;7.25;2.80;;;;;;;;;;4956317;28;20058;-66
2022/06/24 14:18:13;;;;;;;8.48;3.05;;;;;;;;;;4972422;28;20055;-66
2022/06/24 14:20:44;;;;;;;5.63;3.17;;;;;;;;;;4972209;28;20062;-65
2022/06/24 14:26:04;;;;;;;6.70;3.00;;;;;;;;;;4998935;28;20533;-65
2022/06/24 14:28:34;;;;;;;8.40;2.92;;;;;;;;;;5036168;28;20053;-66
2022/06/24 14:31:07;;;;;;;5.45;3.30;;;;;;;;;;5018219;28;20064;-65
2022/06/24 14:33:37;;;;;;;8.15;3.05;;;;;;;;;;5043642;28;20053;-65
2022/06/24 14:36:07;;;;;;;5.95;2.95;;;;;;;;;;5034116;28;20559;-65
2022/06/24 14:41:27;;;;;;;6.57;2.92;;;;;;;;;;5050438;28;20041;-65
2022/06/24 14:43:58;;;;;;;5.07;2.72;;;;;;;;;;5009362;28;20057;-66
2022/06/24 14:46:28;;;;;;;7.93;3.42;;;;;;;;;;5010892;28;20584;-65
2022/06/24 14:48:58;;;;;;;5.13;2.75;;;;;;;;;;5010580;28;20414;-65
2022/06/24 14:51:49;;;;;;;6.57;2.90;;;;;;;;;;5046639;28;20516;-65
2022/06/24 14:54:19;;;;;;;5.95;3.20;;;;;;;;;;5033954;28;20123;-65
2022/06/24 14:56:50;;;;;;;5.03;2.55;;;;;;;;;;5050190;28;20076;-65
2022/06/24 14:59:20;;;;;;;6.65;2.65;;;;;;;;;;5050084;28;20642;-66
2022/06/24 15:01:50;;;;;;;6.07;2.67;;;;;;;;;;5016399;28;20052;-64
2022/06/24 15:04:20;;;;;;;10.13;3.20;;;;;;;;;;5049429;28;20048;-65
2022/06/24 15:06:50;;;;;;;4.35;2.67;;;;;;;;;;5049994;28;20436;-65
2022/06/24 15:09:21;;;;;;;4.68;2.42;;;;;;;;;;5049653;28;20420;-65
2022/06/24 15:11:52;;;;;;;5.82;3.40;;;;;;;;;;5016407;28;20123;-65
2022/06/24 15:14:22;;;;;;;4.50;2.42;;;;;;;;;;5049552;28;20053;-65
2022/06/24 15:16:53;;;;;;;6.75;2.40;;;;;;;;;;5016260;28;20049;-65
2022/06/24 15:19:23;;;;;;;5.53;2.35;;;;;;;;;;5049561;28;20068;-64
2022/06/24 15:21:53;;;;;;;5.20;3.17;;;;;;;;;;5033483;28;20509;-64
2022/06/24 15:24:23;;;;;;;6.57;2.85;;;;;;;;;;5000289;28;20417;-65
2022/06/24 15:26:54;;;;;;;6.50;3.10;;;;;;;;;;5049501;28;20060;-65
2022/06/24 15:29:25;;;;;;;6.07;3.20;;;;;;;;;;5049219;28;20057;-65